Goodwell, OK (73939)

5:00 AM CST on January 31, 2015 (GMT -0600)
Guymon Municipal | Change Station
CLOSE
Current Station
Airport
Location: Guymon,
Elevation: 3123 ft
Nearby Weather Stations

Elev 3123 ft 36.68 °N, 101.51 °W | Updated 7 minutes ago

Rain
Rain
35 °F
Feels Like 26 °F
N
13
Wind Variable Wind from South

Today
High -- | Low -- °F
--% Chance of Precip.
Yesterday
High -- | Low -- °F
Precip. -- in
7:49 AM 6:11 PM
Waxing Gibbous, 89% visible
Pressure 30.06 in
Visibility 8.0 miles
Clouds Scattered Clouds 700 ft
Mostly Cloudy 4800 ft
Overcast 6000 ft
Windchill 26 °F
Dew Point 33 °F
Humidity 92%
Rainfall 0.21 in
Snow Depth Not available.
UV 0 out of 12
Pollen 1.70 out of 12
Air Quality Not available.
Flu Activity Not available.
METAR KGUY 311053Z AUTO 18011KT 8SM -RA SCT007 BKN048 OVC060 02/01 A3004 RMK AO2 SLP180 P0001 T00170006

More Conditions Fewer Conditions

Pressure 30.06 in
Visibility 8.0 miles
Clouds Scattered Clouds 700 ft
Mostly Cloudy 4800 ft
Overcast 6000 ft
Windchill 26 °F
Dew Point 33 °F
Humidity 92%
Rainfall 0.21 in
Snow Depth Not available.
UV 0 out of 12
Pollen 1.70 out of 12
Air Quality Not available.
Flu Activity Not available.
METAR KGUY 311053Z AUTO 18011KT 8SM -RA SCT007 BKN048 OVC060 02/01 A3004 RMK AO2 SLP180 P0001 T00170006

More Conditions Fewer Conditions

10-Day Weather Forecast

Almanac

Astronomy

Jan. 31, 2015 Rise Set
Actual Time
Civil Twilight
Nautical Twilight
Astronomical Twilight
Moon
Length of Visible Light
Length of Day
Tomorrow will be .
, % of the Moon is Illuminated

Today's Extremes

State Highs State Lows

Community

WunderPhotos

Upload Photos

1,792,031 photos uploaded!

WunderBlogs® & News

Nearby

Air Quality

  Air Quality AQ Index Pollutant
Not available.

Snow Depth

Station Depth Elevation

Earthquake Activity

City Distance Mag. Time & Date
Minimum magnitude displayed is 2.5.

Coastal Water Temperatures

Place Temperature

Nearby Weather Stations